Аэропорт: Шпаковское. Ставрополь

ICAO: URMT

METAR:
2022-06-26 11:00:00
URMT 261100Z 22005MPS 9999 -SHRA SCT010 BKN025CB 17/16 Q1010 R25/290250 TEMPO 4000 -SHRA SCT007 BKN020CB RMK QFE719
METAR:
2022-06-26 08:00:00
TAF URMT 260800Z 2609/2618 11003G10MPS 9999 SCT030CB TEMPO 2609/2615 6000 -SHRA SCT016 BKN030CB BECMG 2616/2618 26003G09MPS